createdAt,value
2023-04-08T00:03:15.403Z,37.10
2023-04-08T00:08:19.712Z,27.42
2023-04-08T00:13:22.481Z,33.60
2023-04-08T00:18:25.265Z,26.92
2023-04-08T00:23:29.312Z,25.92
2023-04-08T00:28:32.092Z,25.88
2023-04-08T00:33:34.887Z,26.42
2023-04-08T00:38:39.041Z,29.02
2023-04-08T00:43:41.831Z,27.08
2023-04-08T00:48:44.727Z,23.67
2023-04-08T00:53:48.810Z,24.65
2023-04-08T00:58:55.122Z,28.00
2023-04-08T01:04:03.478Z,25.57
2023-04-08T01:09:08.070Z,23.63
2023-04-08T01:14:13.142Z,25.67
2023-04-08T01:19:23.852Z,21.50
2023-04-08T01:24:32.020Z,29.80
2023-04-08T01:29:37.566Z,26.40
2023-04-08T01:34:42.741Z,26.50
2023-04-08T01:39:46.795Z,25.33
2023-04-08T01:44:52.437Z,27.73
2023-04-08T01:49:56.582Z,20.75
2023-04-08T01:54:59.422Z,24.80
2023-04-08T02:00:07.553Z,23.85
2023-04-08T02:05:22.747Z,20.45
2023-04-08T02:10:25.760Z,23.50
2023-04-08T02:15:33.292Z,26.13
2023-04-08T02:20:39.898Z,24.73
2023-04-08T02:25:45.499Z,20.50
2023-04-08T02:30:51.894Z,23.48
2023-04-08T02:35:56.562Z,28.80
2023-04-08T02:40:59.873Z,20.25
2023-04-08T02:46:07.264Z,21.17
2023-04-08T02:56:14.799Z,21.63
2023-04-08T03:01:18.965Z,19.88
2023-04-08T03:06:21.711Z,21.08
2023-04-08T03:11:24.462Z,25.13
2023-04-08T03:16:28.604Z,34.60
2023-04-08T03:21:32.275Z,40.92
2023-04-08T03:26:35.245Z,29.33
2023-04-08T03:31:39.351Z,30.88
2023-04-08T03:36:42.159Z,30.95
2023-04-08T03:41:44.925Z,27.60
2023-04-08T03:46:49.141Z,33.35
2023-04-08T03:51:52.107Z,31.92
2023-04-08T03:56:55.268Z,38.83
2023-04-08T04:01:59.367Z,40.75
2023-04-08T04:07:02.356Z,39.70
2023-04-08T04:12:05.221Z,39.95
2023-04-08T04:17:09.336Z,40.17
2023-04-08T04:22:12.468Z,47.53
2023-04-08T04:27:15.168Z,35.35
2023-04-08T04:32:19.454Z,37.67
2023-04-08T04:37:22.512Z,39.28
2023-04-08T04:42:25.484Z,38.70
2023-04-08T04:47:29.650Z,36.05
2023-04-08T04:52:32.466Z,35.55
2023-04-08T04:57:35.340Z,34.28
2023-04-08T05:02:39.521Z,35.50
2023-04-08T05:07:42.395Z,33.40
2023-04-08T05:12:45.128Z,35.88
2023-04-08T05:17:49.266Z,38.35
2023-04-08T05:22:52.093Z,35.13
2023-04-08T05:27:54.876Z,33.83
2023-04-08T05:33:00.590Z,32.95
2023-04-08T05:38:03.708Z,34.30
2023-04-08T05:43:06.824Z,36.38
2023-04-08T05:48:11.034Z,34.80
2023-04-08T05:53:14.172Z,36.03
2023-04-08T05:58:17.163Z,34.28
2023-04-08T06:03:21.519Z,35.22
2023-04-08T06:08:24.721Z,36.72
2023-04-08T06:13:27.611Z,30.52
2023-04-08T06:18:31.672Z,32.10
2023-04-08T06:23:34.606Z,36.25
2023-04-08T06:28:37.379Z,31.42
2023-04-08T06:33:41.559Z,33.55
2023-04-08T06:38:44.728Z,35.53
2023-04-08T06:43:47.753Z,39.20
2023-04-08T06:48:52.176Z,42.35
2023-04-08T06:53:55.879Z,40.33
2023-04-08T06:58:59.167Z,32.30
2023-04-08T07:04:03.459Z,31.30
2023-04-08T07:09:06.935Z,32.65
2023-04-08T07:14:09.752Z,33.40
2023-04-08T07:19:13.849Z,34.83
2023-04-08T07:24:16.786Z,35.40
2023-04-08T07:29:20.769Z,33.00
2023-04-08T07:34:24.934Z,40.30
2023-04-08T07:39:28.774Z,40.42
2023-04-08T07:44:31.593Z,40.05
2023-04-08T07:49:35.725Z,34.45
2023-04-08T07:54:38.546Z,38.22
2023-04-08T07:59:41.632Z,34.40
2023-04-08T08:04:45.953Z,38.33
2023-04-08T08:09:49.230Z,32.40
2023-04-08T08:14:54.715Z,35.17
2023-04-08T08:19:59.500Z,32.00
2023-04-08T08:25:02.594Z,35.97
2023-04-08T08:30:06.760Z,38.47
2023-04-08T08:35:11.066Z,35.65
2023-04-08T08:40:15.478Z,40.40
2023-04-08T08:45:20.128Z,38.90
2023-04-08T08:50:24.740Z,38.15
2023-04-08T08:55:44.866Z,36.40
2023-04-08T09:00:50.365Z,36.47
2023-04-08T09:05:56.099Z,35.90
2023-04-08T09:11:14.028Z,37.90
2023-04-08T09:16:18.396Z,37.47
2023-04-08T09:21:24.809Z,37.78
2023-04-08T09:26:27.914Z,39.93
2023-04-08T09:31:32.548Z,36.60
2023-04-08T09:36:36.769Z,32.60
2023-04-08T09:41:40.592Z,35.25
2023-04-08T09:46:57.387Z,31.85
2023-04-08T09:52:08.882Z,33.63
2023-04-08T09:57:15.038Z,38.25
2023-04-08T10:02:25.015Z,36.17
2023-04-08T10:07:29.351Z,34.15
2023-04-08T10:12:32.413Z,31.80
2023-04-08T10:17:36.879Z,32.63
2023-04-08T10:22:50.287Z,33.17
2023-04-08T10:27:53.080Z,30.98
2023-04-08T10:32:57.190Z,31.63
2023-04-08T10:38:02.256Z,30.23
2023-04-08T10:43:05.746Z,30.13
2023-04-08T10:48:17.773Z,28.48
2023-04-08T10:53:27.871Z,24.60
2023-04-08T10:58:31.998Z,27.25
2023-04-08T11:03:36.047Z,26.77
2023-04-08T11:08:41.602Z,23.88
2023-04-08T11:13:53.370Z,24.05
2023-04-08T11:18:56.770Z,28.95
2023-04-08T11:24:01.025Z,23.73
2023-04-08T11:29:04.354Z,24.58
2023-04-08T11:34:07.439Z,23.92
2023-04-08T11:39:12.514Z,30.75
2023-04-08T11:44:15.466Z,21.15
2023-04-08T11:49:18.446Z,21.58
2023-04-08T11:54:29.402Z,26.73
2023-04-08T11:59:32.497Z,23.23
2023-04-08T12:04:35.866Z,22.45
2023-04-08T12:09:40.867Z,21.83
2023-04-08T12:14:43.644Z,22.08
2023-04-08T12:19:46.787Z,22.02
2023-04-08T12:24:51.225Z,42.90
2023-04-08T12:29:54.114Z,20.27
2023-04-08T12:34:57.186Z,25.85
2023-04-08T12:40:01.491Z,24.75
2023-04-08T12:45:04.951Z,25.35
2023-04-08T12:50:09.839Z,23.67
2023-04-08T12:55:14.056Z,31.83
2023-04-08T13:00:17.013Z,19.10
2023-04-08T13:05:29.509Z,23.33
2023-04-08T13:10:44.461Z,19.10
2023-04-08T13:15:48.003Z,19.73
2023-04-08T13:20:51.059Z,19.02
2023-04-08T13:25:56.239Z,18.20
2023-04-08T13:30:59.483Z,17.73
2023-04-08T13:36:02.349Z,20.27
2023-04-08T13:41:07.441Z,14.85
2023-04-08T13:46:10.302Z,15.65
2023-04-08T13:51:13.089Z,17.92
2023-04-08T13:56:17.142Z,17.30
2023-04-08T14:01:20.124Z,16.30
2023-04-08T14:06:22.932Z,26.70
2023-04-08T14:11:27.067Z,14.85
2023-04-08T14:16:31.585Z,16.95
2023-04-08T14:21:34.728Z,19.10
2023-04-08T14:26:38.912Z,17.58
2023-04-08T14:31:41.803Z,19.33
2023-04-08T14:36:45.478Z,18.75
2023-04-08T14:41:51.146Z,21.85
2023-04-08T14:46:54.028Z,23.70
2023-04-08T14:51:56.803Z,20.00
2023-04-08T14:57:01.065Z,24.00
2023-04-08T15:02:03.902Z,20.27
2023-04-08T15:07:07.499Z,20.00
2023-04-08T15:12:13.595Z,20.40
2023-04-08T15:17:16.766Z,19.45
2023-04-08T15:22:19.505Z,20.33
2023-04-08T15:27:23.706Z,23.13
2023-04-08T15:32:26.442Z,14.30
2023-04-08T15:37:29.244Z,19.42
2023-04-08T15:42:34.504Z,25.05
2023-04-08T15:47:38.115Z,16.50
2023-04-08T15:52:41.532Z,16.13
2023-04-08T15:57:45.683Z,19.02
2023-04-08T16:02:48.574Z,17.88
2023-04-08T16:07:51.774Z,14.23
2023-04-08T16:12:56.045Z,17.38
2023-04-08T16:17:58.800Z,48.28
2023-04-08T16:23:01.669Z,21.42
2023-04-08T16:28:07.188Z,17.73
2023-04-08T16:33:10.847Z,14.05
2023-04-08T16:38:14.867Z,19.77
2023-04-08T16:43:18.991Z,15.48
2023-04-08T16:48:22.394Z,25.73
2023-04-08T16:53:25.477Z,15.77
2023-04-08T16:58:31.242Z,12.80
2023-04-08T17:03:34.478Z,12.90
2023-04-08T17:08:37.484Z,12.18
2023-04-08T17:13:43.149Z,11.73
2023-04-08T17:18:46.478Z,8.93
2023-04-08T17:23:49.504Z,11.05
2023-04-08T17:28:53.867Z,8.88
2023-04-08T17:33:56.666Z,11.10
2023-04-08T17:38:59.568Z,12.52
2023-04-08T17:44:06.408Z,10.85
2023-04-08T17:49:11.242Z,8.38
2023-04-08T17:54:14.104Z,9.85
2023-04-08T17:59:18.518Z,12.07
2023-04-08T18:04:23.497Z,10.00
2023-04-08T18:09:26.966Z,8.00
2023-04-08T18:14:32.553Z,17.38
2023-04-08T18:19:36.948Z,13.68
2023-04-08T18:24:39.646Z,22.88
2023-04-08T18:29:43.874Z,14.73
2023-04-08T18:34:47.002Z,18.60
2023-04-08T18:39:50.137Z,17.63
2023-04-08T18:44:54.296Z,17.85
2023-04-08T18:49:58.607Z,17.05
2023-04-08T18:55:06.510Z,13.60
2023-04-08T19:00:11.404Z,19.45
2023-04-08T19:05:14.670Z,17.52
2023-04-08T19:10:19.544Z,20.45
2023-04-08T19:15:23.687Z,18.08
2023-04-08T19:20:27.213Z,26.73
2023-04-08T19:25:30.098Z,23.45
2023-04-08T19:30:37.701Z,19.98
2023-04-08T19:35:41.317Z,46.58
2023-04-08T19:40:44.147Z,33.50
2023-04-08T19:45:48.891Z,43.95
2023-04-08T19:50:52.373Z,43.13
2023-04-08T19:56:00.037Z,41.60
2023-04-08T20:01:04.816Z,27.50
2023-04-08T20:06:08.381Z,24.20
2023-04-08T20:11:13.883Z,29.75
2023-04-08T20:16:18.158Z,31.55
2023-04-08T20:21:20.987Z,27.17
2023-04-08T20:26:23.875Z,20.52
2023-04-08T20:31:28.511Z,24.00
2023-04-08T20:36:33.691Z,18.38
2023-04-08T20:41:37.983Z,23.73
2023-04-08T20:46:42.766Z,16.52
2023-04-08T20:51:45.675Z,17.38
2023-04-08T20:56:48.360Z,16.10
2023-04-08T21:01:53.940Z,13.23
2023-04-08T21:06:56.948Z,16.67
2023-04-08T21:11:59.675Z,14.73
2023-04-08T21:17:03.813Z,13.30
2023-04-08T21:22:07.035Z,15.30
2023-04-08T21:27:09.947Z,16.40
2023-04-08T21:32:14.384Z,16.83
2023-04-08T21:37:17.115Z,16.08
2023-04-08T21:42:22.617Z,13.93
2023-04-08T21:47:26.965Z,18.55
2023-04-08T21:52:31.495Z,15.30
2023-04-08T21:57:34.212Z,16.67
2023-04-08T22:02:40.769Z,16.77
2023-04-08T22:07:43.640Z,17.45
2023-04-08T22:12:46.351Z,14.80
2023-04-08T22:17:50.663Z,16.50
2023-04-08T22:22:55.000Z,18.25
2023-04-08T22:27:57.991Z,18.25
2023-04-08T22:33:02.207Z,16.17
2023-04-08T22:38:05.979Z,18.98
2023-04-08T22:43:08.769Z,15.98
2023-04-08T22:48:13.317Z,15.52
2023-04-08T22:53:16.230Z,17.23
2023-04-08T22:58:18.978Z,16.20
2023-04-08T23:03:23.193Z,14.20
2023-04-08T23:08:26.141Z,16.48
2023-04-08T23:13:29.009Z,14.32
2023-04-08T23:18:33.232Z,17.13
2023-04-08T23:23:35.986Z,16.92
2023-04-08T23:28:38.733Z,15.65
2023-04-08T23:33:42.854Z,17.05
2023-04-08T23:38:46.091Z,17.70
2023-04-08T23:43:49.119Z,18.45
2023-04-08T23:48:53.536Z,13.02
2023-04-08T23:53:56.646Z,15.35
2023-04-08T23:58:59.473Z,18.77
